sensor_id;sensor_type;location;lat;lon;timestamp;P1;durP1;ratioP1;P2;durP2;ratioP2
54935;SDS011;40838;50.676;7.838;2023-12-07T00:00:33;49.10;;;24.55;;
54935;SDS011;40838;50.676;7.838;2023-12-07T00:03:00;49.05;;;23.30;;
54935;SDS011;40838;50.676;7.838;2023-12-07T00:05:27;54.40;;;22.20;;
54935;SDS011;40838;50.676;7.838;2023-12-07T00:07:54;43.78;;;21.70;;
54935;SDS011;40838;50.676;7.838;2023-12-07T00:10:22;47.47;;;21.45;;
54935;SDS011;40838;50.676;7.838;2023-12-07T00:12:49;43.97;;;22.67;;
54935;SDS011;40838;50.676;7.838;2023-12-07T00:15:16;44.38;;;23.48;;
54935;SDS011;40838;50.676;7.838;2023-12-07T00:17:42;49.15;;;24.13;;
54935;SDS011;40838;50.676;7.838;2023-12-07T00:20:10;42.95;;;22.20;;
54935;SDS011;40838;50.676;7.838;2023-12-07T00:22:37;42.85;;;21.48;;
54935;SDS011;40838;50.676;7.838;2023-12-07T00:25:04;49.03;;;22.95;;
54935;SDS011;40838;50.676;7.838;2023-12-07T00:27:33;49.85;;;23.02;;
54935;SDS011;40838;50.676;7.838;2023-12-07T00:30:00;45.80;;;22.27;;
54935;SDS011;40838;50.676;7.838;2023-12-07T00:32:27;59.35;;;23.30;;
54935;SDS011;40838;50.676;7.838;2023-12-07T00:34:53;48.53;;;22.80;;
54935;SDS011;40838;50.676;7.838;2023-12-07T00:37:21;51.22;;;23.75;;
54935;SDS011;40838;50.676;7.838;2023-12-07T00:39:47;41.70;;;21.10;;
54935;SDS011;40838;50.676;7.838;2023-12-07T00:42:14;51.03;;;22.70;;
54935;SDS011;40838;50.676;7.838;2023-12-07T00:44:42;50.88;;;22.20;;
54935;SDS011;40838;50.676;7.838;2023-12-07T00:47:09;42.88;;;21.83;;
54935;SDS011;40838;50.676;7.838;2023-12-07T00:49:37;41.58;;;20.63;;
54935;SDS011;40838;50.676;7.838;2023-12-07T00:52:04;44.60;;;20.92;;
54935;SDS011;40838;50.676;7.838;2023-12-07T00:54:32;44.13;;;21.73;;
54935;SDS011;40838;50.676;7.838;2023-12-07T00:56:59;47.63;;;22.00;;
54935;SDS011;40838;50.676;7.838;2023-12-07T00:59:25;45.20;;;21.02;;
54935;SDS011;40838;50.676;7.838;2023-12-07T01:01:54;47.28;;;23.15;;
54935;SDS011;40838;50.676;7.838;2023-12-07T01:04:21;45.88;;;21.38;;
54935;SDS011;40838;50.676;7.838;2023-12-07T01:06:47;38.85;;;20.30;;
54935;SDS011;40838;50.676;7.838;2023-12-07T01:09:14;38.97;;;21.55;;
54935;SDS011;40838;50.676;7.838;2023-12-07T01:11:41;44.55;;;21.30;;
54935;SDS011;40838;50.676;7.838;2023-12-07T01:14:08;36.33;;;20.35;;
54935;SDS011;40838;50.676;7.838;2023-12-07T01:16:36;38.63;;;20.17;;
54935;SDS011;40838;50.676;7.838;2023-12-07T01:19:04;43.95;;;21.27;;
54935;SDS011;40838;50.676;7.838;2023-12-07T01:21:32;41.60;;;22.48;;
54935;SDS011;40838;50.676;7.838;2023-12-07T01:23:59;46.05;;;23.45;;
54935;SDS011;40838;50.676;7.838;2023-12-07T01:26:25;48.65;;;21.98;;
54935;SDS011;40838;50.676;7.838;2023-12-07T01:28:52;45.75;;;21.20;;
54935;SDS011;40838;50.676;7.838;2023-12-07T01:31:19;42.75;;;21.17;;
54935;SDS011;40838;50.676;7.838;2023-12-07T01:33:46;49.47;;;22.45;;
54935;SDS011;40838;50.676;7.838;2023-12-07T01:36:14;41.88;;;20.90;;
54935;SDS011;40838;50.676;7.838;2023-12-07T01:38:41;42.72;;;21.15;;
54935;SDS011;40838;50.676;7.838;2023-12-07T01:41:08;48.20;;;21.80;;
54935;SDS011;40838;50.676;7.838;2023-12-07T01:43:35;43.38;;;21.02;;
54935;SDS011;40838;50.676;7.838;2023-12-07T01:46:02;46.00;;;20.85;;
54935;SDS011;40838;50.676;7.838;2023-12-07T01:48:30;48.40;;;21.02;;
54935;SDS011;40838;50.676;7.838;2023-12-07T01:50:57;46.53;;;22.90;;
54935;SDS011;40838;50.676;7.838;2023-12-07T01:53:26;51.10;;;22.10;;
54935;SDS011;40838;50.676;7.838;2023-12-07T01:55:53;46.33;;;23.27;;
54935;SDS011;40838;50.676;7.838;2023-12-07T01:58:21;45.60;;;22.48;;
54935;SDS011;40838;50.676;7.838;2023-12-07T02:00:47;64.05;;;24.38;;
54935;SDS011;40838;50.676;7.838;2023-12-07T02:03:15;46.63;;;21.73;;
54935;SDS011;40838;50.676;7.838;2023-12-07T02:05:45;45.45;;;21.35;;
54935;SDS011;40838;50.676;7.838;2023-12-07T02:08:14;48.38;;;22.45;;
54935;SDS011;40838;50.676;7.838;2023-12-07T02:10:42;48.00;;;20.85;;
54935;SDS011;40838;50.676;7.838;2023-12-07T02:13:08;57.72;;;25.02;;
54935;SDS011;40838;50.676;7.838;2023-12-07T02:15:35;59.92;;;24.90;;
54935;SDS011;40838;50.676;7.838;2023-12-07T02:18:03;55.40;;;24.23;;
54935;SDS011;40838;50.676;7.838;2023-12-07T02:20:37;48.42;;;22.92;;
54935;SDS011;40838;50.676;7.838;2023-12-07T02:23:09;52.38;;;23.20;;
54935;SDS011;40838;50.676;7.838;2023-12-07T02:25:44;49.22;;;22.27;;
54935;SDS011;40838;50.676;7.838;2023-12-07T02:28:50;55.17;;;22.58;;
54935;SDS011;40838;50.676;7.838;2023-12-07T02:31:17;55.83;;;25.42;;
54935;SDS011;40838;50.676;7.838;2023-12-07T02:33:44;51.00;;;24.08;;
54935;SDS011;40838;50.676;7.838;2023-12-07T02:36:12;54.88;;;25.08;;
54935;SDS011;40838;50.676;7.838;2023-12-07T02:38:43;51.65;;;24.30;;
54935;SDS011;40838;50.676;7.838;2023-12-07T02:41:11;53.63;;;23.52;;
54935;SDS011;40838;50.676;7.838;2023-12-07T02:43:38;49.25;;;23.20;;
54935;SDS011;40838;50.676;7.838;2023-12-07T02:46:07;51.47;;;23.80;;
54935;SDS011;40838;50.676;7.838;2023-12-07T02:48:34;56.33;;;24.17;;
54935;SDS011;40838;50.676;7.838;2023-12-07T02:51:00;53.22;;;23.73;;
54935;SDS011;40838;50.676;7.838;2023-12-07T02:53:27;60.08;;;25.95;;
54935;SDS011;40838;50.676;7.838;2023-12-07T02:55:54;55.53;;;24.05;;
54935;SDS011;40838;50.676;7.838;2023-12-07T02:58:21;54.60;;;24.92;;
54935;SDS011;40838;50.676;7.838;2023-12-07T03:00:47;55.03;;;24.52;;
54935;SDS011;40838;50.676;7.838;2023-12-07T03:03:16;51.67;;;22.98;;
54935;SDS011;40838;50.676;7.838;2023-12-07T03:05:43;55.33;;;23.98;;
54935;SDS011;40838;50.676;7.838;2023-12-07T03:08:10;54.00;;;23.92;;
54935;SDS011;40838;50.676;7.838;2023-12-07T03:10:37;53.25;;;25.08;;
54935;SDS011;40838;50.676;7.838;2023-12-07T03:13:03;56.80;;;25.88;;
54935;SDS011;40838;50.676;7.838;2023-12-07T03:15:30;54.70;;;25.17;;
54935;SDS011;40838;50.676;7.838;2023-12-07T03:17:57;54.20;;;24.33;;
54935;SDS011;40838;50.676;7.838;2023-12-07T03:20:25;62.70;;;24.67;;
54935;SDS011;40838;50.676;7.838;2023-12-07T03:22:53;55.75;;;24.98;;
54935;SDS011;40838;50.676;7.838;2023-12-07T03:25:20;54.88;;;25.13;;
54935;SDS011;40838;50.676;7.838;2023-12-07T03:27:46;48.25;;;23.30;;
54935;SDS011;40838;50.676;7.838;2023-12-07T03:30:13;50.72;;;23.15;;
54935;SDS011;40838;50.676;7.838;2023-12-07T03:32:40;47.60;;;21.90;;
54935;SDS011;40838;50.676;7.838;2023-12-07T03:35:07;51.65;;;23.15;;
54935;SDS011;40838;50.676;7.838;2023-12-07T03:37:35;56.13;;;25.10;;
54935;SDS011;40838;50.676;7.838;2023-12-07T03:40:02;59.53;;;25.42;;
54935;SDS011;40838;50.676;7.838;2023-12-07T03:42:30;61.65;;;25.10;;
54935;SDS011;40838;50.676;7.838;2023-12-07T03:44:57;47.25;;;21.67;;
54935;SDS011;40838;50.676;7.838;2023-12-07T03:47:24;58.10;;;25.10;;
54935;SDS011;40838;50.676;7.838;2023-12-07T03:49:53;57.25;;;24.60;;
54935;SDS011;40838;50.676;7.838;2023-12-07T03:52:20;41.78;;;20.75;;
54935;SDS011;40838;50.676;7.838;2023-12-07T03:54:48;43.65;;;19.88;;
54935;SDS011;40838;50.676;7.838;2023-12-07T03:57:15;44.08;;;20.52;;
54935;SDS011;40838;50.676;7.838;2023-12-07T03:59:42;41.08;;;19.05;;
54935;SDS011;40838;50.676;7.838;2023-12-07T04:02:09;38.58;;;18.92;;
54935;SDS011;40838;50.676;7.838;2023-12-07T04:04:36;39.00;;;18.95;;
54935;SDS011;40838;50.676;7.838;2023-12-07T04:07:04;41.38;;;19.40;;
54935;SDS011;40838;50.676;7.838;2023-12-07T04:09:31;34.47;;;18.38;;
54935;SDS011;40838;50.676;7.838;2023-12-07T04:11:59;40.97;;;18.73;;
54935;SDS011;40838;50.676;7.838;2023-12-07T04:14:26;37.03;;;17.15;;
54935;SDS011;40838;50.676;7.838;2023-12-07T04:16:53;39.92;;;18.02;;
54935;SDS011;40838;50.676;7.838;2023-12-07T04:19:19;45.67;;;19.15;;
54935;SDS011;40838;50.676;7.838;2023-12-07T04:21:46;42.33;;;18.85;;
54935;SDS011;40838;50.676;7.838;2023-12-07T04:24:13;54.70;;;22.95;;
54935;SDS011;40838;50.676;7.838;2023-12-07T04:26:40;55.20;;;23.02;;
54935;SDS011;40838;50.676;7.838;2023-12-07T04:29:08;42.03;;;20.75;;
54935;SDS011;40838;50.676;7.838;2023-12-07T04:31:34;41.80;;;18.95;;
54935;SDS011;40838;50.676;7.838;2023-12-07T04:34:01;45.65;;;19.15;;
54935;SDS011;40838;50.676;7.838;2023-12-07T04:36:28;53.03;;;20.95;;
54935;SDS011;40838;50.676;7.838;2023-12-07T04:38:55;56.65;;;22.40;;
54935;SDS011;40838;50.676;7.838;2023-12-07T04:41:22;44.90;;;19.35;;
54935;SDS011;40838;50.676;7.838;2023-12-07T04:43:48;46.60;;;21.95;;
54935;SDS011;40838;50.676;7.838;2023-12-07T04:46:17;51.47;;;21.83;;
54935;SDS011;40838;50.676;7.838;2023-12-07T04:48:44;56.22;;;23.98;;
54935;SDS011;40838;50.676;7.838;2023-12-07T04:51:11;60.45;;;24.30;;
54935;SDS011;40838;50.676;7.838;2023-12-07T04:53:38;59.90;;;23.50;;
54935;SDS011;40838;50.676;7.838;2023-12-07T04:56:06;58.35;;;23.60;;
54935;SDS011;40838;50.676;7.838;2023-12-07T04:58:33;47.85;;;20.95;;
54935;SDS011;40838;50.676;7.838;2023-12-07T05:01:00;56.35;;;23.42;;
54935;SDS011;40838;50.676;7.838;2023-12-07T05:03:29;58.13;;;23.45;;
54935;SDS011;40838;50.676;7.838;2023-12-07T05:05:56;53.97;;;23.90;;
54935;SDS011;40838;50.676;7.838;2023-12-07T05:08:23;51.78;;;22.23;;
54935;SDS011;40838;50.676;7.838;2023-12-07T05:10:50;49.17;;;21.52;;
54935;SDS011;40838;50.676;7.838;2023-12-07T05:13:16;45.25;;;21.58;;
54935;SDS011;40838;50.676;7.838;2023-12-07T05:15:43;40.15;;;19.55;;
54935;SDS011;40838;50.676;7.838;2023-12-07T05:18:12;42.38;;;19.83;;
54935;SDS011;40838;50.676;7.838;2023-12-07T05:20:40;49.88;;;20.33;;
54935;SDS011;40838;50.676;7.838;2023-12-07T05:23:08;46.03;;;19.77;;
54935;SDS011;40838;50.676;7.838;2023-12-07T05:25:35;36.75;;;19.35;;
54935;SDS011;40838;50.676;7.838;2023-12-07T05:28:01;40.25;;;20.27;;
54935;SDS011;40838;50.676;7.838;2023-12-07T05:30:29;45.70;;;20.05;;
54935;SDS011;40838;50.676;7.838;2023-12-07T05:32:56;46.60;;;21.02;;
54935;SDS011;40838;50.676;7.838;2023-12-07T05:35:23;48.10;;;21.17;;
54935;SDS011;40838;50.676;7.838;2023-12-07T05:37:51;49.83;;;22.10;;
54935;SDS011;40838;50.676;7.838;2023-12-07T05:40:18;43.58;;;19.33;;
54935;SDS011;40838;50.676;7.838;2023-12-07T05:42:45;39.78;;;17.77;;
54935;SDS011;40838;50.676;7.838;2023-12-07T05:45:13;46.38;;;22.45;;
54935;SDS011;40838;50.676;7.838;2023-12-07T05:47:41;142.90;;;29.90;;
54935;SDS011;40838;50.676;7.838;2023-12-07T05:50:08;54.28;;;23.58;;
54935;SDS011;40838;50.676;7.838;2023-12-07T05:52:35;52.60;;;22.98;;
54935;SDS011;40838;50.676;7.838;2023-12-07T05:55:03;52.70;;;21.75;;
54935;SDS011;40838;50.676;7.838;2023-12-07T05:57:31;44.08;;;20.88;;
54935;SDS011;40838;50.676;7.838;2023-12-07T05:59:59;48.20;;;20.33;;
54935;SDS011;40838;50.676;7.838;2023-12-07T06:02:26;49.33;;;21.83;;
54935;SDS011;40838;50.676;7.838;2023-12-07T06:04:53;51.20;;;21.60;;
54935;SDS011;40838;50.676;7.838;2023-12-07T06:07:20;42.83;;;20.17;;
54935;SDS011;40838;50.676;7.838;2023-12-07T06:09:46;41.38;;;20.15;;
54935;SDS011;40838;50.676;7.838;2023-12-07T06:12:14;43.35;;;20.23;;
54935;SDS011;40838;50.676;7.838;2023-12-07T06:14:44;45.17;;;20.63;;
54935;SDS011;40838;50.676;7.838;2023-12-07T06:17:11;39.85;;;18.38;;
54935;SDS011;40838;50.676;7.838;2023-12-07T06:19:37;40.25;;;19.90;;
54935;SDS011;40838;50.676;7.838;2023-12-07T06:22:04;41.33;;;18.67;;
54935;SDS011;40838;50.676;7.838;2023-12-07T06:24:32;41.70;;;20.05;;
54935;SDS011;40838;50.676;7.838;2023-12-07T06:26:58;33.72;;;17.83;;
54935;SDS011;40838;50.676;7.838;2023-12-07T06:29:29;35.90;;;18.38;;
54935;SDS011;40838;50.676;7.838;2023-12-07T06:31:56;38.22;;;17.55;;
54935;SDS011;40838;50.676;7.838;2023-12-07T06:34:23;36.47;;;17.90;;
54935;SDS011;40838;50.676;7.838;2023-12-07T06:36:50;31.10;;;15.98;;
54935;SDS011;40838;50.676;7.838;2023-12-07T06:39:17;36.63;;;17.83;;
54935;SDS011;40838;50.676;7.838;2023-12-07T06:41:45;39.55;;;17.73;;
54935;SDS011;40838;50.676;7.838;2023-12-07T06:44:11;43.42;;;19.63;;
54935;SDS011;40838;50.676;7.838;2023-12-07T06:46:39;35.53;;;18.17;;
54935;SDS011;40838;50.676;7.838;2023-12-07T06:49:06;39.35;;;18.15;;
54935;SDS011;40838;50.676;7.838;2023-12-07T06:51:33;37.03;;;17.85;;
54935;SDS011;40838;50.676;7.838;2023-12-07T06:54:00;38.45;;;16.90;;
54935;SDS011;40838;50.676;7.838;2023-12-07T06:56:27;39.72;;;17.77;;
54935;SDS011;40838;50.676;7.838;2023-12-07T06:58:53;34.75;;;16.48;;
54935;SDS011;40838;50.676;7.838;2023-12-07T07:01:20;38.10;;;16.98;;
54935;SDS011;40838;50.676;7.838;2023-12-07T07:03:48;40.47;;;20.55;;
54935;SDS011;40838;50.676;7.838;2023-12-07T07:06:15;33.92;;;17.75;;
54935;SDS011;40838;50.676;7.838;2023-12-07T07:08:42;34.13;;;16.20;;
54935;SDS011;40838;50.676;7.838;2023-12-07T07:11:11;37.35;;;16.85;;
54935;SDS011;40838;50.676;7.838;2023-12-07T07:13:39;28.42;;;15.00;;
54935;SDS011;40838;50.676;7.838;2023-12-07T07:16:07;36.00;;;16.52;;
54935;SDS011;40838;50.676;7.838;2023-12-07T07:18:34;31.73;;;14.50;;
54935;SDS011;40838;50.676;7.838;2023-12-07T07:21:02;35.90;;;15.70;;
54935;SDS011;40838;50.676;7.838;2023-12-07T07:23:29;30.58;;;15.32;;
54935;SDS011;40838;50.676;7.838;2023-12-07T07:25:56;35.17;;;16.52;;
54935;SDS011;40838;50.676;7.838;2023-12-07T07:28:23;35.83;;;16.58;;
54935;SDS011;40838;50.676;7.838;2023-12-07T07:30:50;37.33;;;16.17;;
54935;SDS011;40838;50.676;7.838;2023-12-07T07:33:18;41.35;;;17.38;;
54935;SDS011;40838;50.676;7.838;2023-12-07T07:35:45;35.50;;;16.60;;
54935;SDS011;40838;50.676;7.838;2023-12-07T07:38:13;32.40;;;14.70;;
54935;SDS011;40838;50.676;7.838;2023-12-07T07:40:40;36.88;;;16.40;;
54935;SDS011;40838;50.676;7.838;2023-12-07T07:43:08;32.83;;;16.10;;
54935;SDS011;40838;50.676;7.838;2023-12-07T07:45:34;37.10;;;16.95;;
54935;SDS011;40838;50.676;7.838;2023-12-07T07:48:01;34.67;;;15.90;;
54935;SDS011;40838;50.676;7.838;2023-12-07T07:50:28;31.40;;;15.38;;
54935;SDS011;40838;50.676;7.838;2023-12-07T07:52:55;29.55;;;13.65;;
54935;SDS011;40838;50.676;7.838;2023-12-07T07:55:23;35.22;;;16.63;;
54935;SDS011;40838;50.676;7.838;2023-12-07T07:57:50;29.20;;;14.23;;
54935;SDS011;40838;50.676;7.838;2023-12-07T08:00:17;26.90;;;14.32;;
54935;SDS011;40838;50.676;7.838;2023-12-07T08:02:44;37.53;;;14.95;;
54935;SDS011;40838;50.676;7.838;2023-12-07T08:05:12;39.90;;;17.38;;
54935;SDS011;40838;50.676;7.838;2023-12-07T08:07:39;27.38;;;14.98;;
54935;SDS011;40838;50.676;7.838;2023-12-07T08:10:06;33.05;;;17.08;;
54935;SDS011;40838;50.676;7.838;2023-12-07T08:12:36;35.05;;;17.15;;
54935;SDS011;40838;50.676;7.838;2023-12-07T08:15:03;35.22;;;16.80;;
54935;SDS011;40838;50.676;7.838;2023-12-07T08:17:36;37.30;;;17.02;;
54935;SDS011;40838;50.676;7.838;2023-12-07T08:20:04;35.65;;;16.95;;
54935;SDS011;40838;50.676;7.838;2023-12-07T08:22:32;34.75;;;16.27;;
54935;SDS011;40838;50.676;7.838;2023-12-07T08:24:59;40.95;;;17.35;;
54935;SDS011;40838;50.676;7.838;2023-12-07T08:27:26;36.38;;;16.85;;
54935;SDS011;40838;50.676;7.838;2023-12-07T08:29:54;37.83;;;16.70;;
54935;SDS011;40838;50.676;7.838;2023-12-07T08:32:21;32.30;;;16.05;;
54935;SDS011;40838;50.676;7.838;2023-12-07T08:34:50;32.55;;;13.82;;
54935;SDS011;40838;50.676;7.838;2023-12-07T08:37:17;29.10;;;13.85;;
54935;SDS011;40838;50.676;7.838;2023-12-07T08:39:44;29.63;;;14.77;;
54935;SDS011;40838;50.676;7.838;2023-12-07T08:42:11;25.30;;;13.27;;
54935;SDS011;40838;50.676;7.838;2023-12-07T08:44:38;35.50;;;15.75;;
54935;SDS011;40838;50.676;7.838;2023-12-07T08:47:06;35.58;;;15.63;;
54935;SDS011;40838;50.676;7.838;2023-12-07T08:49:33;30.15;;;13.98;;
54935;SDS011;40838;50.676;7.838;2023-12-07T08:52:00;30.85;;;13.88;;
54935;SDS011;40838;50.676;7.838;2023-12-07T08:54:26;21.52;;;12.68;;
54935;SDS011;40838;50.676;7.838;2023-12-07T08:56:53;31.98;;;15.63;;
54935;SDS011;40838;50.676;7.838;2023-12-07T08:59:21;26.75;;;13.80;;
54935;SDS011;40838;50.676;7.838;2023-12-07T09:01:48;27.60;;;13.00;;
54935;SDS011;40838;50.676;7.838;2023-12-07T09:04:16;25.88;;;14.05;;
54935;SDS011;40838;50.676;7.838;2023-12-07T09:06:43;29.38;;;13.73;;
54935;SDS011;40838;50.676;7.838;2023-12-07T09:09:10;26.90;;;11.63;;
54935;SDS011;40838;50.676;7.838;2023-12-07T09:11:37;29.52;;;14.07;;
54935;SDS011;40838;50.676;7.838;2023-12-07T09:14:03;30.83;;;15.52;;
54935;SDS011;40838;50.676;7.838;2023-12-07T09:16:30;33.83;;;16.58;;
54935;SDS011;40838;50.676;7.838;2023-12-07T09:18:57;35.13;;;16.48;;
54935;SDS011;40838;50.676;7.838;2023-12-07T09:21:25;31.92;;;15.63;;
54935;SDS011;40838;50.676;7.838;2023-12-07T09:23:52;38.33;;;16.48;;
54935;SDS011;40838;50.676;7.838;2023-12-07T09:26:18;35.20;;;16.08;;
54935;SDS011;40838;50.676;7.838;2023-12-07T09:28:46;38.70;;;16.23;;
54935;SDS011;40838;50.676;7.838;2023-12-07T09:31:13;38.90;;;15.40;;
54935;SDS011;40838;50.676;7.838;2023-12-07T09:33:42;42.45;;;16.33;;
54935;SDS011;40838;50.676;7.838;2023-12-07T09:36:09;36.10;;;15.68;;
54935;SDS011;40838;50.676;7.838;2023-12-07T09:38:38;32.42;;;15.75;;
54935;SDS011;40838;50.676;7.838;2023-12-07T09:41:05;31.48;;;15.13;;
54935;SDS011;40838;50.676;7.838;2023-12-07T09:43:32;30.80;;;14.35;;
54935;SDS011;40838;50.676;7.838;2023-12-07T09:45:58;34.10;;;16.08;;
54935;SDS011;40838;50.676;7.838;2023-12-07T09:48:26;31.13;;;14.77;;
54935;SDS011;40838;50.676;7.838;2023-12-07T09:50:54;39.13;;;19.10;;
54935;SDS011;40838;50.676;7.838;2023-12-07T09:53:22;33.72;;;14.57;;
54935;SDS011;40838;50.676;7.838;2023-12-07T09:55:49;31.65;;;15.07;;
54935;SDS011;40838;50.676;7.838;2023-12-07T09:58:16;29.83;;;13.68;;
54935;SDS011;40838;50.676;7.838;2023-12-07T10:00:42;29.67;;;13.85;;
54935;SDS011;40838;50.676;7.838;2023-12-07T10:03:10;27.67;;;13.52;;
54935;SDS011;40838;50.676;7.838;2023-12-07T10:05:54;26.10;;;13.05;;
54935;SDS011;40838;50.676;7.838;2023-12-07T10:08:25;26.55;;;12.88;;
54935;SDS011;40838;50.676;7.838;2023-12-07T10:11:02;28.95;;;13.27;;
54935;SDS011;40838;50.676;7.838;2023-12-07T10:13:33;25.15;;;12.13;;
54935;SDS011;40838;50.676;7.838;2023-12-07T10:16:07;25.50;;;12.98;;
54935;SDS011;40838;50.676;7.838;2023-12-07T10:18:39;24.85;;;11.93;;
54935;SDS011;40838;50.676;7.838;2023-12-07T10:21:07;30.17;;;13.73;;
54935;SDS011;40838;50.676;7.838;2023-12-07T10:23:34;20.58;;;10.88;;
54935;SDS011;40838;50.676;7.838;2023-12-07T10:26:03;23.92;;;11.93;;
54935;SDS011;40838;50.676;7.838;2023-12-07T10:28:33;24.00;;;11.10;;
54935;SDS011;40838;50.676;7.838;2023-12-07T10:31:01;24.23;;;10.70;;
54935;SDS011;40838;50.676;7.838;2023-12-07T10:33:27;22.00;;;11.07;;
54935;SDS011;40838;50.676;7.838;2023-12-07T10:35:54;22.15;;;10.32;;
54935;SDS011;40838;50.676;7.838;2023-12-07T10:38:21;20.17;;;10.18;;
54935;SDS011;40838;50.676;7.838;2023-12-07T10:40:48;17.85;;;10.85;;
54935;SDS011;40838;50.676;7.838;2023-12-07T10:43:25;22.25;;;9.68;;
54935;SDS011;40838;50.676;7.838;2023-12-07T10:45:52;19.70;;;10.02;;
54935;SDS011;40838;50.676;7.838;2023-12-07T10:48:19;17.98;;;9.00;;
54935;SDS011;40838;50.676;7.838;2023-12-07T10:50:47;13.40;;;8.40;;
54935;SDS011;40838;50.676;7.838;2023-12-07T10:53:21;13.85;;;8.82;;
54935;SDS011;40838;50.676;7.838;2023-12-07T10:55:55;15.45;;;8.85;;
54935;SDS011;40838;50.676;7.838;2023-12-07T10:58:23;15.38;;;8.93;;
54935;SDS011;40838;50.676;7.838;2023-12-07T11:00:52;14.10;;;8.10;;
54935;SDS011;40838;50.676;7.838;2023-12-07T11:03:19;16.25;;;9.07;;
54935;SDS011;40838;50.676;7.838;2023-12-07T11:05:47;17.58;;;9.25;;
54935;SDS011;40838;50.676;7.838;2023-12-07T11:08:15;18.90;;;9.75;;
54935;SDS011;40838;50.676;7.838;2023-12-07T11:10:49;18.75;;;10.15;;
54935;SDS011;40838;50.676;7.838;2023-12-07T11:13:22;15.32;;;9.95;;
54935;SDS011;40838;50.676;7.838;2023-12-07T11:15:53;18.30;;;10.88;;
54935;SDS011;40838;50.676;7.838;2023-12-07T11:18:21;19.83;;;9.50;;
54935;SDS011;40838;50.676;7.838;2023-12-07T11:20:48;19.20;;;9.93;;
54935;SDS011;40838;50.676;7.838;2023-12-07T11:23:17;15.48;;;8.10;;
54935;SDS011;40838;50.676;7.838;2023-12-07T11:25:44;12.02;;;7.35;;
54935;SDS011;40838;50.676;7.838;2023-12-07T11:28:12;20.98;;;8.90;;
54935;SDS011;40838;50.676;7.838;2023-12-07T11:30:42;15.95;;;8.70;;
54935;SDS011;40838;50.676;7.838;2023-12-07T11:33:11;16.38;;;7.65;;
54935;SDS011;40838;50.676;7.838;2023-12-07T11:41:40;13.05;;;7.50;;
54935;SDS011;40838;50.676;7.838;2023-12-07T11:44:09;15.48;;;7.63;;
54935;SDS011;40838;50.676;7.838;2023-12-07T11:46:38;14.77;;;7.53;;
54935;SDS011;40838;50.676;7.838;2023-12-07T11:49:05;12.13;;;7.28;;
54935;SDS011;40838;50.676;7.838;2023-12-07T11:51:35;14.20;;;8.02;;
54935;SDS011;40838;50.676;7.838;2023-12-07T11:54:02;13.45;;;7.40;;
54935;SDS011;40838;50.676;7.838;2023-12-07T11:56:29;16.45;;;8.50;;
54935;SDS011;40838;50.676;7.838;2023-12-07T11:58:56;17.15;;;9.40;;
54935;SDS011;40838;50.676;7.838;2023-12-07T12:01:24;18.15;;;9.05;;
54935;SDS011;40838;50.676;7.838;2023-12-07T12:03:54;19.20;;;8.23;;
54935;SDS011;40838;50.676;7.838;2023-12-07T12:06:20;14.13;;;7.85;;
54935;SDS011;40838;50.676;7.838;2023-12-07T12:08:51;14.88;;;7.70;;
54935;SDS011;40838;50.676;7.838;2023-12-07T12:11:18;14.57;;;8.27;;
54935;SDS011;40838;50.676;7.838;2023-12-07T12:13:46;16.25;;;7.32;;
54935;SDS011;40838;50.676;7.838;2023-12-07T12:16:14;13.23;;;7.72;;
54935;SDS011;40838;50.676;7.838;2023-12-07T12:18:41;13.32;;;6.38;;
54935;SDS011;40838;50.676;7.838;2023-12-07T12:21:10;13.85;;;6.45;;
54935;SDS011;40838;50.676;7.838;2023-12-07T12:23:40;12.05;;;7.63;;
54935;SDS011;40838;50.676;7.838;2023-12-07T12:26:08;16.30;;;6.75;;
54935;SDS011;40838;50.676;7.838;2023-12-07T12:28:35;14.55;;;7.72;;
54935;SDS011;40838;50.676;7.838;2023-12-07T12:31:07;19.02;;;9.65;;
54935;SDS011;40838;50.676;7.838;2023-12-07T12:33:36;22.55;;;9.63;;
54935;SDS011;40838;50.676;7.838;2023-12-07T12:36:04;19.92;;;8.93;;
54935;SDS011;40838;50.676;7.838;2023-12-07T12:38:34;20.75;;;9.48;;
54935;SDS011;40838;50.676;7.838;2023-12-07T12:41:01;15.60;;;8.32;;
54935;SDS011;40838;50.676;7.838;2023-12-07T12:43:29;16.58;;;8.25;;
54935;SDS011;40838;50.676;7.838;2023-12-07T12:45:57;46.42;;;8.50;;
54935;SDS011;40838;50.676;7.838;2023-12-07T12:48:24;14.73;;;7.43;;
54935;SDS011;40838;50.676;7.838;2023-12-07T12:50:51;16.85;;;8.05;;
54935;SDS011;40838;50.676;7.838;2023-12-07T12:53:17;17.10;;;8.73;;
54935;SDS011;40838;50.676;7.838;2023-12-07T12:55:46;16.15;;;9.30;;
54935;SDS011;40838;50.676;7.838;2023-12-07T12:58:14;18.48;;;9.57;;
54935;SDS011;40838;50.676;7.838;2023-12-07T13:00:42;22.77;;;9.00;;
54935;SDS011;40838;50.676;7.838;2023-12-07T13:03:09;19.15;;;10.23;;
54935;SDS011;40838;50.676;7.838;2023-12-07T13:05:38;23.50;;;8.95;;
54935;SDS011;40838;50.676;7.838;2023-12-07T13:08:05;21.25;;;9.60;;
54935;SDS011;40838;50.676;7.838;2023-12-07T13:10:33;21.67;;;9.15;;
54935;SDS011;40838;50.676;7.838;2023-12-07T13:13:01;17.13;;;9.35;;
54935;SDS011;40838;50.676;7.838;2023-12-07T13:15:29;20.75;;;8.85;;
54935;SDS011;40838;50.676;7.838;2023-12-07T13:17:56;20.60;;;10.20;;
54935;SDS011;40838;50.676;7.838;2023-12-07T13:20:22;20.77;;;10.23;;
54935;SDS011;40838;50.676;7.838;2023-12-07T13:22:50;17.60;;;9.13;;
54935;SDS011;40838;50.676;7.838;2023-12-07T13:25:16;19.02;;;8.07;;
54935;SDS011;40838;50.676;7.838;2023-12-07T13:27:43;15.15;;;8.05;;
54935;SDS011;40838;50.676;7.838;2023-12-07T13:30:11;15.82;;;8.73;;
54935;SDS011;40838;50.676;7.838;2023-12-07T13:32:38;20.08;;;10.10;;
54935;SDS011;40838;50.676;7.838;2023-12-07T13:35:05;18.58;;;9.00;;
54935;SDS011;40838;50.676;7.838;2023-12-07T13:37:33;23.25;;;10.07;;
54935;SDS011;40838;50.676;7.838;2023-12-07T13:40:01;20.75;;;9.55;;
54935;SDS011;40838;50.676;7.838;2023-12-07T13:42:30;35.60;;;11.73;;
54935;SDS011;40838;50.676;7.838;2023-12-07T13:44:58;19.25;;;9.63;;
54935;SDS011;40838;50.676;7.838;2023-12-07T13:47:27;21.85;;;10.10;;
54935;SDS011;40838;50.676;7.838;2023-12-07T13:49:56;25.50;;;10.48;;
54935;SDS011;40838;50.676;7.838;2023-12-07T13:52:24;26.13;;;11.65;;
54935;SDS011;40838;50.676;7.838;2023-12-07T13:54:51;21.67;;;10.07;;
54935;SDS011;40838;50.676;7.838;2023-12-07T13:57:18;23.83;;;11.07;;
54935;SDS011;40838;50.676;7.838;2023-12-07T13:59:45;23.80;;;11.82;;
54935;SDS011;40838;50.676;7.838;2023-12-07T14:02:12;23.73;;;11.93;;
54935;SDS011;40838;50.676;7.838;2023-12-07T14:04:41;24.42;;;12.13;;
54935;SDS011;40838;50.676;7.838;2023-12-07T14:07:11;28.67;;;11.30;;
54935;SDS011;40838;50.676;7.838;2023-12-07T14:09:40;26.25;;;11.80;;
54935;SDS011;40838;50.676;7.838;2023-12-07T14:12:08;23.48;;;11.07;;
54935;SDS011;40838;50.676;7.838;2023-12-07T14:14:38;29.15;;;11.93;;
54935;SDS011;40838;50.676;7.838;2023-12-07T14:17:05;24.75;;;10.52;;
54935;SDS011;40838;50.676;7.838;2023-12-07T14:19:32;21.70;;;9.68;;
54935;SDS011;40838;50.676;7.838;2023-12-07T14:22:01;23.13;;;10.65;;
54935;SDS011;40838;50.676;7.838;2023-12-07T14:24:29;19.70;;;10.52;;
54935;SDS011;40838;50.676;7.838;2023-12-07T14:26:56;22.90;;;11.55;;
54935;SDS011;40838;50.676;7.838;2023-12-07T14:29:24;22.10;;;10.88;;
54935;SDS011;40838;50.676;7.838;2023-12-07T14:31:51;20.33;;;9.93;;